Список аэропортов
Фактическая погода:

22 января, 23:30
Температура: -5°C (-9.5*)
Ветер: восточный 3 м/с
Давление: *775 мм
несуществ. обл.
Время (МСК)Темп. СВетерВлажностьДавлениеОблачностьОсадки
21:00-1СВ, 2 м/с76%1034 гПас прояснениями
22:00-1СВ, 2 м/с78%1035 гПамалооблачно
23:00-2СВ, 2 м/с80%1035 гПаясно
23 января
00:00-3СВ, 2 м/с86%1035 гПаясно
01:00-4В, 2 м/с88%1035 гПамалооблачно
02:00-4В, 2 м/с88%1035 гПамалооблачно
03:00-4В, 2 м/с87%1035 гПаясно
04:00-4ЮВ, 2 м/с87%1035 гПаясно
05:00-4ЮВ, 2 м/с88%1035 гПаясно
06:00-4ЮВ, 2 м/с89%1035 гПаясно
07:00-4ЮВ, 2 м/с90%1035 гПаясно
08:00-4ЮВ, 2 м/с90%1035 гПамалооблачно
09:00-4ЮВ, 2 м/с87%1035 гПас прояснениями
10:00-2ЮВ, 2 м/с79%1035 гПамалооблачно
11:00-1ЮВ, 1 м/с75%1034 гПамалооблачно
12:00+2ЮВ, 2 м/с63%1034 гПаясно
13:00+4Ю, 2 м/с60%1034 гПаясно
14:00+4ЮЗ, 2 м/с58%1033 гПамалооблачно
15:00+4ЮЗ, 2 м/с58%1032 гПас прояснениями
16:00+4ЮЗ, 2 м/с62%1032 гПаоблачно
17:00+1Штиль 75%1032 гПаоблачно
18:00+1В, 1 м/с77%1032 гПаоблачно
19:000ЮВ, 1 м/с78%1032 гПаоблачно
20:000ЮВ, 2 м/с80%1032 гПаоблачно
21:000ЮВ, 3 м/с81%1032 гПаоблачно
22:00-0Ю, 3 м/с82%1031 гПамалооблачно
23:00-1ЮВ, 3 м/с84%1031 гПаясно
24 января
00:00-2ЮВ, 3 м/с86%1030 гПаясно
01:00-2ЮВ, 3 м/с87%1030 гПаясно
02:00-2ЮВ, 2 м/с89%1029 гПаясно
03:00-2ЮВ, 2 м/с90%1029 гПаясно
04:00-2ЮВ, 3 м/с91%1028 гПаясно
05:00-2В, 3 м/с91%1027 гПамалооблачно
06:00-2В, 3 м/с90%1026 гПас прояснениями
07:00-1В, 3 м/с84%1025 гПаоблачно
08:00-1В, 3 м/с83%1025 гПаоблачно
09:00-1В, 2 м/с84%1025 гПаоблачно
10:00-1В, 3 м/с84%1024 гПас прояснениями
11:000В, 3 м/с82%1023 гПаоблачно
12:00+3В, 2 м/с69%1023 гПаоблачно
13:00+5В, 2 м/с64%1022 гПаоблачно
14:00+6С, 1 м/с63%1022 гПаоблачно
15:00+5СВ, 3 м/с65%1021 гПаоблачно
16:00+4СВ, 4 м/с68%1019 гПаоблачно
17:00+3В, 3 м/с72%1020 гПаоблачно
18:00+2В, 2 м/с79%1020 гПаоблачно
19:00+2В, 3 м/с80%1019 гПаоблачно
20:00+2ЮВ, 2 м/с84%1019 гПаоблачно
21:00+2ЮВ, 2 м/с88%1018 гПаоблачно